Terminal Aerodrome Forecast
Issued by NWS Sioux Falls, SD

Home | Current Version | Previous Version | Graphics & Text | Print | Product List | Glossary Off
Versions: 1 2 3 4 5 6 7 8 9 10 11 12 13

000
FTUS43 KFSD 030520
TAFHON
TAF
KHON 030520Z 0306/0406 16010KT P6SM SCT100
     FM030900 VRB03KT P6SM SCT250
     FM031300 35010KT P6SM SCT250
     FM031600 36016G24KT P6SM SCT150
     FM040100 02008KT P6SM SKC=

USA.gov is the U.S. government's official web portal to all federal, state and local government web resources and services.